Time;durP1;ratioP1;P1;durP2;ratioP2;P2;SDS_P1;SDS_P2;PMS_P1;PMS_P2;Temp;Humidity;BMP_temperature;BMP_pressure;BME280_temperature;BME280_humidity;BME280_pressure;Samples;Min_cycle;Max_cycle;Signal;HPM_P1;HPM_P2
2022/04/02 00:00:45;;;;;;;10.20;3.00;;;0.70;99.90;;;;;;5072975;28;20406;-68
2022/04/02 00:03:11;;;;;;;8.70;3.35;;;0.70;99.90;;;;;;5072646;28;20049;-68
2022/04/02 00:05:37;;;;;;;8.77;3.17;;;0.70;99.90;;;;;;5037849;28;20044;-68
2022/04/02 00:08:03;;;;;;;5.32;2.72;;;0.70;99.90;;;;;;5073028;28;20131;-67
2022/04/02 00:10:29;;;;;;;6.72;2.85;;;0.70;99.90;;;;;;5071050;28;20505;-68
2022/04/02 00:12:56;;;;;;;5.38;2.70;;;0.70;99.90;;;;;;5072003;28;20032;-67
2022/04/02 00:15:22;;;;;;;8.27;2.85;;;0.70;99.90;;;;;;5072200;28;20123;-68
2022/04/02 00:17:48;;;;;;;4.57;2.70;;;0.70;99.90;;;;;;5054929;28;20053;-68
2022/04/02 00:20:14;;;;;;;7.18;3.30;;;0.70;99.90;;;;;;5065567;28;20045;-67
2022/04/02 00:23:35;;;;;;;10.55;2.72;;;0.70;99.90;;;;;;5072104;28;20394;-68
2022/04/02 00:25:25;;;;;;;14.18;3.40;;;0.70;99.90;;;;;;5070247;28;20475;-68
2022/04/02 00:27:51;;;;;;;5.07;2.90;;;0.70;99.90;;;;;;5055333;28;20120;-68
2022/04/02 00:30:17;;;;;;;7.57;3.15;;;0.70;99.90;;;;;;5071704;28;20398;-67
2022/04/02 00:32:42;;;;;;;6.07;2.88;;;0.70;99.90;;;;;;5072802;28;20053;-68
2022/04/02 00:35:09;;;;;;;10.80;3.03;;;0.80;99.90;;;;;;5050637;28;20068;-68
2022/04/02 00:37:35;;;;;;;7.80;3.15;;;0.70;99.90;;;;;;5072565;28;20450;-67
2022/04/02 00:40:01;;;;;;;4.97;2.70;;;0.80;99.90;;;;;;5069940;28;20135;-68
2022/04/02 00:42:26;;;;;;;6.35;2.38;;;0.70;99.90;;;;;;5072605;28;20051;-68
2022/04/02 00:44:52;;;;;;;4.65;3.05;;;0.80;99.90;;;;;;5072164;28;20036;-68
2022/04/02 00:47:20;;;;;;;6.68;3.00;;;0.80;99.90;;;;;;5068470;28;20447;-68
2022/04/02 00:49:46;;;;;;;6.10;3.20;;;0.80;99.90;;;;;;5071873;28;20072;-67
2022/04/02 00:52:13;;;;;;;5.95;3.08;;;0.90;99.90;;;;;;5036671;28;20041;-68
2022/04/02 00:54:40;;;;;;;6.05;2.95;;;0.90;99.90;;;;;;5068776;28;20119;-69
2022/04/02 00:57:06;;;;;;;9.93;3.53;;;1.00;99.90;;;;;;5068963;28;20423;-68
2022/04/02 00:59:32;;;;;;;5.18;2.78;;;1.00;99.90;;;;;;5069674;28;20037;-69
2022/04/02 01:01:58;;;;;;;6.10;2.95;;;1.00;99.90;;;;;;5050111;28;20486;-67
2022/04/02 01:04:24;;;;;;;6.13;2.78;;;1.00;99.90;;;;;;5072821;28;20048;-68
2022/04/02 01:06:51;;;;;;;5.18;2.85;;;0.90;99.90;;;;;;5069853;28;20652;-67
2022/04/02 01:09:17;;;;;;;5.40;3.30;;;0.90;99.90;;;;;;5062087;28;20056;-68
2022/04/02 01:11:45;;;;;;;6.25;2.88;;;0.90;99.90;;;;;;5070654;28;20394;-68
2022/04/02 01:14:13;;;;;;;7.47;3.17;;;0.90;99.90;;;;;;5044047;28;20048;-68
2022/04/02 01:16:39;;;;;;;9.40;4.32;;;0.90;99.90;;;;;;5070793;28;20029;-68
2022/04/02 01:19:05;;;;;;;9.60;3.15;;;0.80;99.90;;;;;;5048417;28;20445;-67
2022/04/02 01:21:34;;;;;;;5.70;2.75;;;0.80;99.90;;;;;;5072095;28;20053;-68
2022/04/02 01:24:00;;;;;;;5.05;3.13;;;0.80;99.90;;;;;;5070970;28;20493;-68
2022/04/02 01:26:27;;;;;;;8.48;2.97;;;0.80;99.90;;;;;;5052370;28;20394;-68
2022/04/02 01:28:57;;;;;;;6.75;2.50;;;0.80;99.90;;;;;;5054344;28;20051;-70
2022/04/02 01:31:24;;;;;;;4.97;2.75;;;0.70;99.90;;;;;;5069981;28;20032;-68
2022/04/02 01:33:50;;;;;;;11.15;4.22;;;0.70;99.90;;;;;;5067927;28;20040;-69
2022/04/02 01:36:17;;;;;;;5.28;2.60;;;0.60;99.90;;;;;;5066794;28;20032;-68
2022/04/02 01:38:43;;;;;;;7.13;2.58;;;0.60;99.90;;;;;;5069701;28;20383;-69
2022/04/02 01:41:08;;;;;;;6.72;3.13;;;0.60;99.90;;;;;;5049437;28;20433;-68
2022/04/02 01:43:34;;;;;;;7.20;2.97;;;0.60;99.90;;;;;;5062793;28;20040;-67
2022/04/02 01:46:01;;;;;;;5.57;2.92;;;0.60;99.90;;;;;;5069517;28;20049;-68
2022/04/02 01:48:27;;;;;;;7.05;3.10;;;0.60;99.90;;;;;;5052466;28;20055;-69
2022/04/02 01:50:53;;;;;;;5.38;2.92;;;0.50;99.90;;;;;;5050730;28;20510;-67
2022/04/02 01:53:20;;;;;;;5.50;2.70;;;0.60;99.90;;;;;;5071057;28;20051;-67
2022/04/02 01:55:47;;;;;;;6.03;2.53;;;0.50;99.90;;;;;;5071318;28;20064;-68
2022/04/02 01:58:13;;;;;;;6.25;2.85;;;0.60;99.90;;;;;;5050541;28;20047;-68
2022/04/02 02:00:39;;;;;;;5.93;2.88;;;0.50;99.90;;;;;;5050018;28;20131;-68
2022/04/02 02:03:06;;;;;;;6.80;2.65;;;0.60;99.90;;;;;;5061733;28;20470;-68
2022/04/02 02:05:33;;;;;;;12.80;3.75;;;0.50;99.90;;;;;;5052880;28;20044;-68
2022/04/02 02:07:58;;;;;;;4.45;2.30;;;0.50;99.90;;;;;;5057299;28;21127;-68
2022/04/02 02:10:24;;;;;;;3.10;2.30;;;0.60;99.90;;;;;;5058587;28;20405;-69
2022/04/02 02:12:50;;;;;;;5.15;2.53;;;0.70;99.90;;;;;;5068837;28;20406;-68
2022/04/02 02:15:18;;;;;;;6.05;2.38;;;0.70;99.90;;;;;;5050105;28;20734;-68
2022/04/02 02:17:47;;;;;;;6.20;2.28;;;0.70;99.90;;;;;;5065802;28;20047;-68
2022/04/02 02:20:14;;;;;;;11.38;2.72;;;0.70;99.90;;;;;;5070682;28;20033;-69
2022/04/02 02:22:41;;;;;;;9.88;2.95;;;0.60;99.90;;;;;;5069900;28;20041;-70
2022/04/02 02:25:08;;;;;;;10.55;2.70;;;0.70;99.90;;;;;;5071097;28;20044;-69
2022/04/02 02:27:34;;;;;;;6.75;2.70;;;0.70;99.90;;;;;;5052584;28;20604;-69
2022/04/02 02:30:01;;;;;;;10.10;2.92;;;0.70;99.90;;;;;;5052984;28;20058;-69
2022/04/02 02:32:26;;;;;;;4.40;2.42;;;0.60;99.90;;;;;;5041033;28;20178;-68
2022/04/02 02:37:39;;;;;;;4.32;2.20;;;0.60;99.90;;;;;;5053086;28;20516;-67
2022/04/02 02:40:06;;;;;;;5.18;2.40;;;1.30;99.90;;;;;;5049127;28;20045;-67
2022/04/02 02:42:31;;;;;;;4.25;2.47;;;0.60;99.90;;;;;;5070806;28;20047;-68
2022/04/02 02:44:57;;;;;;;6.57;2.60;;;0.60;99.90;;;;;;5039207;28;20406;-67
2022/04/02 02:47:23;;;;;;;8.07;3.22;;;0.50;99.90;;;;;;5069822;28;20478;-67
2022/04/02 02:49:49;;;;;;;4.47;2.60;;;0.50;99.90;;;;;;5070712;28;20468;-67
2022/04/02 02:52:15;;;;;;;7.30;2.65;;;0.40;99.90;;;;;;5067153;28;20037;-68
2022/04/02 02:54:40;;;;;;;5.22;2.53;;;0.40;99.90;;;;;;5067525;28;20512;-68
2022/04/02 02:57:06;;;;;;;7.38;2.78;;;0.40;99.90;;;;;;5035221;28;20036;-68
2022/04/02 02:59:33;;;;;;;6.07;2.50;;;0.30;99.90;;;;;;5067881;28;20067;-67
2022/04/02 03:01:58;;;;;;;7.53;2.97;;;0.30;99.90;;;;;;5056241;28;20047;-68
2022/04/02 03:04:24;;;;;;;5.30;2.83;;;0.30;99.90;;;;;;5052397;28;20493;-68
2022/04/02 03:06:50;;;;;;;5.32;2.75;;;0.20;99.90;;;;;;5065681;28;20604;-68
2022/04/02 03:09:15;;;;;;;7.88;2.47;;;0.20;99.90;;;;;;5051981;28;20047;-69
2022/04/02 03:11:41;;;;;;;12.88;2.63;;;0.20;99.90;;;;;;5069861;28;20041;-67
2022/04/02 03:14:07;;;;;;;6.75;2.60;;;0.20;99.90;;;;;;5068702;28;20389;-67
2022/04/02 03:16:32;;;;;;;6.18;2.42;;;0.20;99.90;;;;;;5069026;28;20319;-67
2022/04/02 03:19:00;;;;;;;4.25;2.30;;;0.20;99.90;;;;;;5069705;28;20531;-67
2022/04/02 03:21:27;;;;;;;6.10;2.53;;;0.20;99.90;;;;;;5070223;28;20513;-68
2022/04/02 03:23:53;;;;;;;10.07;2.60;;;0.20;99.90;;;;;;5052027;28;20294;-67
2022/04/02 03:26:19;;;;;;;3.70;1.83;;;0.20;99.90;;;;;;5069894;28;20071;-67
2022/04/02 03:28:46;;;;;;;8.43;2.00;;;0.20;99.90;;;;;;5065933;28;20037;-67
2022/04/02 03:31:12;;;;;;;13.00;2.47;;;0.20;99.90;;;;;;5051756;28;20470;-68
2022/04/02 03:33:37;;;;;;;9.85;2.30;;;0.40;99.90;;;;;;5068851;28;20098;-67
2022/04/02 03:36:04;;;;;;;5.82;2.60;;;0.30;99.90;;;;;;5072836;28;20119;-68
2022/04/02 03:38:29;;;;;;;6.75;2.50;;;0.30;99.90;;;;;;5056343;28;20045;-67
2022/04/02 03:40:56;;;;;;;5.13;2.20;;;0.30;99.90;;;;;;5061249;28;20048;-68
2022/04/02 03:43:22;;;;;;;7.25;2.17;;;0.30;99.90;;;;;;5055541;28;20061;-68
2022/04/02 03:45:48;;;;;;;7.32;2.13;;;0.20;99.90;;;;;;5055275;28;20411;-67
2022/04/02 03:48:13;;;;;;;8.07;2.28;;;0.20;99.90;;;;;;5051469;28;20053;-67
2022/04/02 03:50:39;;;;;;;4.78;2.35;;;0.20;99.90;;;;;;5072119;28;20051;-68
2022/04/02 03:53:05;;;;;;;4.50;1.98;;;0.20;99.90;;;;;;5053368;28;20440;-67
2022/04/02 03:55:30;;;;;;;5.85;1.92;;;0.20;99.90;;;;;;5043079;28;20371;-67
2022/04/02 03:57:56;;;;;;;8.00;2.60;;;0.20;99.90;;;;;;5072779;28;20041;-67
2022/04/02 04:00:22;;;;;;;5.45;2.20;;;0.10;99.90;;;;;;5074031;28;20145;-67
2022/04/02 04:02:48;;;;;;;5.88;2.00;;;0.10;99.90;;;;;;5081284;28;20041;-67
2022/04/02 04:05:14;;;;;;;9.63;2.20;;;0.90;99.90;;;;;;5053413;28;20049;-68
2022/04/02 04:07:40;;;;;;;7.63;2.40;;;0.10;99.90;;;;;;5072711;28;20034;-69
2022/04/02 04:10:06;;;;;;;8.55;2.20;;;0.00;99.90;;;;;;5035050;28;20495;-69
2022/04/02 04:12:32;;;;;;;10.55;2.65;;;0.00;99.90;;;;;;5072748;28;20766;-68
2022/04/02 04:14:58;;;;;;;4.28;2.15;;;0.00;99.90;;;;;;5055201;28;20048;-67
2022/04/02 04:17:24;;;;;;;5.05;1.95;;;0.00;99.90;;;;;;5071653;28;20498;-68
2022/04/02 04:19:50;;;;;;;5.20;2.10;;;0.00;99.90;;;;;;5068665;28;20033;-67
2022/04/02 04:22:17;;;;;;;5.15;2.30;;;0.00;99.90;;;;;;5067222;28;20087;-68
2022/04/02 04:24:43;;;;;;;8.25;2.38;;;0.00;99.90;;;;;;5063273;28;20142;-67
2022/04/02 04:27:08;;;;;;;7.82;2.13;;;0.00;99.90;;;;;;5066416;28;20037;-68
2022/04/02 04:29:37;;;;;;;6.85;2.20;;;0.10;99.90;;;;;;5072886;28;20040;-68
2022/04/02 04:32:03;;;;;;;3.35;2.05;;;0.00;99.90;;;;;;5054238;28;20043;-68
2022/04/02 04:34:29;;;;;;;4.88;2.50;;;0.00;99.90;;;;;;5070943;28;20047;-68
2022/04/02 04:36:55;;;;;;;6.15;2.25;;;0.00;99.90;;;;;;5067874;28;20037;-68
2022/04/02 04:39:20;;;;;;;11.63;2.78;;;0.10;99.90;;;;;;5070278;28;20040;-68
2022/04/02 04:41:46;;;;;;;11.57;2.20;;;1.40;99.90;;;;;;5071590;28;20036;-68
2022/04/02 04:44:11;;;;;;;6.43;2.17;;;0.20;99.90;;;;;;5071684;28;20086;-68
2022/04/02 04:46:37;;;;;;;10.13;2.53;;;0.30;99.90;;;;;;5072911;28;20037;-68
2022/04/02 04:49:02;;;;;;;6.70;2.50;;;0.40;99.90;;;;;;5071595;28;20059;-68
2022/04/02 04:51:28;;;;;;;8.48;2.42;;;0.50;99.90;;;;;;5071608;28;20049;-67
2022/04/02 04:53:54;;;;;;;8.68;2.40;;;0.50;99.90;;;;;;5069674;28;20037;-69
2022/04/02 04:56:20;;;;;;;8.40;3.05;;;0.60;99.90;;;;;;5071384;28;20048;-68
2022/04/02 04:58:46;;;;;;;10.25;2.90;;;0.70;99.90;;;;;;5072199;28;20044;-69
2022/04/02 05:01:12;;;;;;;4.80;2.30;;;0.80;99.90;;;;;;5069882;28;20032;-68
2022/04/02 05:03:39;;;;;;;9.40;2.80;;;0.80;99.90;;;;;;5070395;28;20505;-67
2022/04/02 05:06:09;;;;;;;5.00;2.60;;;0.90;99.90;;;;;;5069472;28;20226;-68
2022/04/02 05:08:35;;;;;;;6.30;2.95;;;0.90;99.90;;;;;;5073772;28;20086;-67
2022/04/02 05:11:01;;;;;;;7.13;2.65;;;0.90;99.90;;;;;;5066692;28;20530;-68
2022/04/02 05:13:27;;;;;;;9.05;2.83;;;0.90;99.90;;;;;;5069395;28;20047;-68
2022/04/02 05:15:53;;;;;;;11.45;3.00;;;0.90;99.90;;;;;;5053989;28;20091;-69
2022/04/02 05:18:19;;;;;;;9.77;2.92;;;0.90;99.90;;;;;;5072470;28;20084;-68
2022/04/02 05:20:44;;;;;;;4.55;2.38;;;0.90;99.90;;;;;;5081909;28;20044;-68
2022/04/02 05:23:11;;;;;;;5.45;2.72;;;0.90;99.90;;;;;;5053115;28;20044;-67
2022/04/02 05:25:38;;;;;;;7.97;2.90;;;0.90;99.90;;;;;;5070657;28;20039;-67
2022/04/02 05:28:05;;;;;;;8.25;2.63;;;0.90;99.90;;;;;;5068594;28;20048;-68
2022/04/02 05:30:32;;;;;;;8.65;2.85;;;0.80;99.90;;;;;;5052062;28;20040;-67
2022/04/02 05:32:58;;;;;;;6.82;2.60;;;0.90;99.90;;;;;;5068359;28;20044;-68
2022/04/02 05:35:23;;;;;;;4.75;2.53;;;0.90;99.90;;;;;;5050458;28;20059;-68
2022/04/02 05:37:52;;;;;;;8.63;2.97;;;0.90;99.90;;;;;;5069835;28;20506;-68
2022/04/02 05:40:18;;;;;;;;;;;0.90;99.90;;;;;;5069478;28;20067;-67
2022/04/02 05:42:45;;;;;;;12.98;3.55;;;0.90;99.90;;;;;;5054629;28;19999;-68
2022/04/02 05:45:11;;;;;;;6.55;3.28;;;0.90;99.90;;;;;;5053832;28;20048;-67
2022/04/02 05:47:48;;;;;;;5.25;2.72;;;1.00;99.90;;;;;;5052226;28;20086;-68
2022/04/02 05:50:19;;;;;;;9.40;3.20;;;1.00;99.90;;;;;;5070783;28;20076;-69
2022/04/02 05:52:45;;;;;;;10.07;3.83;;;1.10;99.90;;;;;;5070668;28;20129;-68
2022/04/02 05:55:12;;;;;;;7.80;2.88;;;1.10;99.90;;;;;;5053040;28;20561;-68
2022/04/02 05:57:39;;;;;;;5.97;3.03;;;1.20;99.90;;;;;;5049264;28;20072;-68
2022/04/02 06:00:06;;;;;;;9.00;3.10;;;1.30;99.90;;;;;;5054244;28;20048;-69
2022/04/02 06:02:32;;;;;;;4.85;2.80;;;1.30;99.90;;;;;;5072019;28;20374;-66
2022/04/02 06:04:59;;;;;;;6.13;2.70;;;1.30;99.90;;;;;;5078942;28;20051;-68
2022/04/02 06:07:25;;;;;;;7.70;2.88;;;1.40;99.90;;;;;;5052092;28;20103;-68
2022/04/02 06:09:50;;;;;;;10.00;3.50;;;1.40;99.90;;;;;;5054948;28;20416;-67
2022/04/02 06:12:16;;;;;;;9.30;3.15;;;1.40;99.90;;;;;;5073631;28;20072;-67
2022/04/02 06:14:41;;;;;;;8.73;3.00;;;1.40;99.90;;;;;;5069376;28;20047;-67
2022/04/02 06:17:07;;;;;;;5.65;2.60;;;1.40;99.90;;;;;;5049976;28;20478;-67
2022/04/02 06:19:32;;;;;;;7.30;2.88;;;1.50;99.90;;;;;;5081864;28;20097;-66
2022/04/02 06:21:58;;;;;;;5.30;2.70;;;1.50;99.90;;;;;;5068614;28;20500;-68
2022/04/02 06:24:24;;;;;;;6.32;2.75;;;1.50;99.90;;;;;;5052087;28;20041;-68
2022/04/02 06:26:49;;;;;;;7.55;2.70;;;1.40;99.90;;;;;;5057808;28;20530;-68
2022/04/02 06:29:15;;;;;;;11.50;2.40;;;1.60;99.90;;;;;;5065464;28;20075;-68
2022/04/02 06:31:41;;;;;;;3.90;2.13;;;1.60;99.90;;;;;;5073804;28;20049;-68
2022/04/02 06:34:06;;;;;;;6.13;2.47;;;1.60;99.90;;;;;;5070846;28;20063;-67
2022/04/02 06:36:32;;;;;;;3.22;1.98;;;1.70;99.90;;;;;;5070569;28;20393;-67
2022/04/02 06:38:58;;;;;;;5.95;2.10;;;1.60;99.90;;;;;;5070871;28;20047;-66
2022/04/02 06:41:23;;;;;;;5.03;2.00;;;1.70;99.90;;;;;;5069739;28;20044;-67
2022/04/02 06:43:49;;;;;;;4.72;2.22;;;1.80;99.90;;;;;;5050603;28;20128;-67
2022/04/02 06:46:15;;;;;;;5.00;1.88;;;1.90;99.90;;;;;;5071523;28;20116;-68
2022/04/02 06:48:40;;;;;;;4.13;1.98;;;2.00;99.90;;;;;;5053145;28;20088;-68
2022/04/02 06:51:07;;;;;;;9.30;2.45;;;2.10;99.90;;;;;;5043755;28;20438;-67
2022/04/02 06:53:34;;;;;;;6.20;2.45;;;2.50;99.90;;;;;;5039059;28;20040;-67
2022/04/02 06:55:59;;;;;;;5.15;2.20;;;2.30;99.90;;;;;;5072861;28;20372;-67
2022/04/02 06:58:32;;;;;;;4.03;2.03;;;2.30;99.90;;;;;;5051920;28;20128;-68
2022/04/02 07:00:58;;;;;;;6.93;2.35;;;2.30;99.90;;;;;;5051887;28;20044;-68
2022/04/02 07:03:23;;;;;;;5.07;2.45;;;2.30;99.90;;;;;;5071490;28;20063;-68
2022/04/02 07:05:49;;;;;;;6.97;2.45;;;2.30;99.90;;;;;;5054824;28;20079;-68
2022/04/02 07:08:15;;;;;;;4.28;2.35;;;2.30;99.90;;;;;;5061725;28;20040;-67
2022/04/02 07:10:41;;;;;;;4.55;1.70;;;2.20;99.90;;;;;;5055020;28;20051;-69
2022/04/02 07:13:06;;;;;;;4.50;2.03;;;2.20;99.90;;;;;;5074077;28;20044;-67
2022/04/02 07:15:32;;;;;;;5.45;2.33;;;2.10;99.90;;;;;;5071798;28;20037;-68
2022/04/02 07:18:05;;;;;;;4.28;2.08;;;2.10;99.90;;;;;;5073291;28;20129;-68
2022/04/02 07:20:34;;;;;;;6.38;1.90;;;2.00;99.90;;;;;;5046797;28;20505;-68
2022/04/02 07:23:01;;;;;;;3.08;1.60;;;1.90;99.90;;;;;;5070683;28;20161;-68
2022/04/02 07:25:29;;;;;;;2.72;1.50;;;1.90;99.90;;;;;;5074204;28;20044;-67
2022/04/02 07:27:56;;;;;;;2.97;1.80;;;1.90;99.90;;;;;;5056092;28;20037;-67
2022/04/02 07:30:22;;;;;;;3.78;1.98;;;1.80;99.90;;;;;;5056581;28;20452;-68
2022/04/02 07:32:48;;;;;;;6.13;1.95;;;2.20;99.90;;;;;;5055679;28;20045;-68
2022/04/02 07:35:14;;;;;;;4.38;2.20;;;1.70;99.90;;;;;;5056180;28;20394;-68
2022/04/02 07:38:11;;;;;;;4.50;1.60;;;1.80;99.90;;;;;;5041008;28;20071;-66
2022/04/02 07:40:42;;;;;;;3.67;1.77;;;1.90;99.90;;;;;;5073466;28;20033;-67
2022/04/02 07:43:24;;;;;;;4.40;1.83;;;1.90;99.90;;;;;;5069577;28;20047;-67
2022/04/02 07:46:04;;;;;;;10.23;1.73;;;1.90;99.90;;;;;;5074651;28;20052;-67
2022/04/02 07:48:32;;;;;;;6.10;2.00;;;2.00;99.90;;;;;;5073487;28;20516;-67
2022/04/02 07:51:01;;;;;;;4.18;1.90;;;2.00;99.90;;;;;;5073823;28;20051;-66
2022/04/02 07:53:34;;;;;;;4.03;1.92;;;2.10;99.90;;;;;;5074558;28;20149;-67
2022/04/02 07:56:03;;;;;;;4.47;2.10;;;2.30;99.90;;;;;;5072445;28;20177;-67
2022/04/02 07:58:31;;;;;;;4.30;2.05;;;2.50;99.90;;;;;;5074231;28;20094;-66
2022/04/02 08:01:01;;;;;;;4.72;1.70;;;2.70;99.90;;;;;;5056237;28;20044;-67
2022/04/02 08:03:29;;;;;;;3.10;1.80;;;2.90;99.90;;;;;;5050562;28;20045;-67
2022/04/02 08:05:55;;;;;;;7.38;1.80;;;3.30;99.90;;;;;;5073929;28;20040;-67
2022/04/02 08:08:24;;;;;;;9.52;1.67;;;3.70;99.90;;;;;;5059055;28;20506;-66
2022/04/02 08:10:54;;;;;;;4.35;1.70;;;4.00;99.90;;;;;;5053718;28;20041;-69
2022/04/02 08:13:21;;;;;;;5.80;1.60;;;4.10;99.90;;;;;;5073072;28;20033;-68
2022/04/02 08:15:46;;;;;;;3.65;1.52;;;4.30;99.90;;;;;;5073135;28;20041;-67
2022/04/02 08:18:16;;;;;;;5.22;1.88;;;4.10;99.90;;;;;;5055149;28;20383;-67
2022/04/02 08:20:43;;;;;;;5.30;1.88;;;4.20;99.90;;;;;;5072223;28;20041;-68
2022/04/02 08:23:08;;;;;;;8.15;1.95;;;4.20;99.90;;;;;;5053770;28;20041;-68
2022/04/02 08:25:38;;;;;;;4.75;2.08;;;4.30;99.90;;;;;;5073509;28;20040;-67
2022/04/02 08:28:13;;;;;;;6.38;2.00;;;4.40;99.90;;;;;;5058773;28;20049;-67
2022/04/02 08:30:51;;;;;;;6.40;1.65;;;4.40;99.90;;;;;;5073390;28;20547;-67
2022/04/02 08:33:20;;;;;;;5.68;1.80;;;4.50;99.90;;;;;;5063885;28;20102;-67
2022/04/02 08:35:58;;;;;;;5.15;1.70;;;4.50;99.90;;;;;;5072722;28;20037;-67
2022/04/02 08:38:35;;;;;;;7.03;1.58;;;4.50;99.90;;;;;;5072909;28;20326;-66
2022/04/02 08:41:32;;;;;;;6.05;1.80;;;4.70;99.90;;;;;;5050913;28;20051;-67
2022/04/02 08:44:22;;;;;;;5.63;1.80;;;4.80;99.90;;;;;;5053149;28;20127;-67
2022/04/02 08:47:21;;;;;;;3.70;1.70;;;4.90;99.90;;;;;;5053074;28;20582;-68
2022/04/02 08:50:13;;;;;;;6.07;1.75;;;5.10;99.90;;;;;;5026254;28;20052;-68
2022/04/02 08:53:11;;;;;;;4.88;1.55;;;5.50;99.90;;;;;;5041729;28;20049;-68
2022/04/02 08:55:39;;;;;;;4.53;1.50;;;5.70;99.90;;;;;;5053032;28;20049;-67
2022/04/02 08:58:14;;;;;;;4.15;1.50;;;5.90;99.90;;;;;;5058006;28;20052;-68
2022/04/02 09:00:42;;;;;;;5.57;1.60;;;6.00;99.90;;;;;;5053286;28;20072;-67
2022/04/02 09:03:43;;;;;;;6.28;2.08;;;6.20;99.90;;;;;;5052901;28;20056;-67
2022/04/02 09:06:38;;;;;;;3.88;1.65;;;6.30;99.10;;;;;;5071006;28;20106;-68
2022/04/02 09:09:06;;;;;;;5.72;1.52;;;6.20;97.90;;;;;;5067903;28;20052;-67
2022/04/02 09:11:38;;;;;;;7.78;1.60;;;6.00;96.40;;;;;;5071762;28;20040;-67
2022/04/02 09:14:06;;;;;;;2.97;1.27;;;5.90;96.70;;;;;;5053829;28;20128;-68
2022/04/02 09:16:48;;;;;;;4.68;1.40;;;5.60;96.90;;;;;;5072780;28;20040;-67
2022/04/02 09:19:20;;;;;;;3.90;1.67;;;5.70;97.30;;;;;;5053192;28;20060;-67
2022/04/02 09:21:54;;;;;;;3.88;1.55;;;5.50;95.50;;;;;;5054749;28;20563;-67
2022/04/02 09:24:37;;;;;;;3.60;1.35;;;5.40;96.90;;;;;;5067673;28;20065;-67
2022/04/02 09:27:41;;;;;;;3.30;1.50;;;5.40;96.10;;;;;;5069623;28;20570;-68
2022/04/02 09:30:23;;;;;;;2.67;1.55;;;5.50;97.10;;;;;;4986742;28;20072;-68
2022/04/02 09:32:56;;;;;;;4.13;1.70;;;5.50;96.80;;;;;;5052647;28;20076;-67
2022/04/02 09:35:34;;;;;;;6.10;1.77;;;5.20;96.80;;;;;;5049832;28;20084;-67
2022/04/02 09:38:30;;;;;;;4.00;1.73;;;5.30;97.00;;;;;;5067860;28;20517;-67
2022/04/02 09:41:14;;;;;;;2.85;1.50;;;5.30;96.60;;;;;;5042505;28;20072;-67
2022/04/02 09:43:58;;;;;;;4.28;1.58;;;5.30;96.40;;;;;;5053830;28;20046;-67
2022/04/02 09:46:51;;;;;;;7.95;2.03;;;5.40;96.50;;;;;;5052859;28;20055;-66
2022/04/02 09:49:55;;;;;;;7.50;1.55;;;5.30;96.30;;;;;;5071636;28;20453;-68
2022/04/02 09:52:22;;;;;;;6.78;1.77;;;5.60;97.40;;;;;;5057835;28;20067;-67
2022/04/02 09:55:05;;;;;;;3.22;1.58;;;5.90;96.50;;;;;;5061962;28;20047;-68
2022/04/02 09:57:45;;;;;;;7.05;2.22;;;6.00;95.70;;;;;;5065198;28;20028;-67
2022/04/02 10:00:13;;;;;;;7.88;2.00;;;5.80;94.60;;;;;;5049299;28;20119;-68
2022/04/02 10:02:54;;;;;;;5.57;1.60;;;5.60;95.10;;;;;;5054412;28;20036;-68
2022/04/02 10:05:27;;;;;;;4.15;2.10;;;5.60;95.80;;;;;;5071676;28;20037;-68
2022/04/02 10:08:08;;;;;;;4.32;1.63;;;6.20;96.60;;;;;;5071722;28;20464;-67
2022/04/02 10:10:36;;;;;;;5.60;1.85;;;6.40;94.30;;;;;;5042889;28;20063;-69
2022/04/02 10:13:03;;;;;;;6.80;2.05;;;6.70;94.30;;;;;;5092112;28;20438;-68
2022/04/02 10:15:31;;;;;;;5.18;1.60;;;6.10;94.40;;;;;;5072778;28;20601;-68
2022/04/02 10:18:02;;;;;;;4.78;1.48;;;6.20;94.90;;;;;;5068440;28;20052;-68
2022/04/02 10:20:30;;;;;;;9.30;2.10;;;6.40;94.30;;;;;;5069932;28;20056;-68
2022/04/02 10:23:14;;;;;;;3.60;1.25;;;6.30;93.40;;;;;;5065672;28;20076;-67
2022/04/02 10:25:57;;;;;;;6.78;1.60;;;6.50;92.80;;;;;;5051521;28;20041;-68
2022/04/02 10:28:28;;;;;;;4.00;1.38;;;6.30;91.80;;;;;;5069066;28;20045;-67
2022/04/02 10:30:57;;;;;;;8.52;1.75;;;6.40;91.40;;;;;;5071078;28;20052;-67
2022/04/02 10:33:28;;;;;;;5.10;1.70;;;6.50;91.70;;;;;;5061394;28;20037;-67
2022/04/02 10:35:55;;;;;;;5.20;1.73;;;6.40;91.90;;;;;;5036892;28;20405;-67
2022/04/02 10:38:36;;;;;;;4.38;1.52;;;6.20;90.80;;;;;;5071552;28;20063;-67
2022/04/02 10:41:12;;;;;;;3.00;1.50;;;6.10;91.40;;;;;;5060711;28;20048;-68
2022/04/02 10:44:02;;;;;;;6.07;1.73;;;5.90;91.30;;;;;;5056932;28;20049;-68
2022/04/02 10:46:32;;;;;;;6.40;1.65;;;5.90;91.50;;;;;;5055770;28;20052;-67
2022/04/02 10:49:06;;;;;;;5.88;1.88;;;5.90;91.40;;;;;;5056744;28;20055;-67
2022/04/02 10:51:37;;;;;;;3.50;1.50;;;6.60;90.10;;;;;;5051235;28;20072;-66
2022/04/02 10:54:07;;;;;;;4.30;1.45;;;6.60;84.70;;;;;;5053770;28;20045;-67
2022/04/02 10:56:52;;;;;;;3.42;1.42;;;7.10;83.40;;;;;;5075151;28;20032;-66
2022/04/02 10:59:19;;;;;;;2.50;1.23;;;7.50;82.00;;;;;;5056930;28;20041;-66
2022/04/02 11:01:46;;;;;;;4.95;1.65;;;7.00;83.30;;;;;;5075255;28;20406;-67
2022/04/02 11:04:30;;;;;;;5.33;1.50;;;6.70;84.30;;;;;;5056898;28;20516;-67
2022/04/02 11:06:57;;;;;;;3.55;1.38;;;6.60;80.80;;;;;;5063084;28;20306;-67
2022/04/02 11:09:41;;;;;;;7.82;1.75;;;6.40;81.50;;;;;;5069495;28;20460;-67
2022/04/02 11:12:09;;;;;;;3.83;1.48;;;6.50;82.50;;;;;;5055020;28;20041;-67
2022/04/02 11:14:37;;;;;;;6.75;1.88;;;6.50;85.80;;;;;;5067385;28;20420;-67
2022/04/02 11:17:03;;;;;;;5.65;2.28;;;6.30;84.00;;;;;;5074242;28;20048;-68
2022/04/02 11:22:27;;;;;;;4.38;1.55;;;6.90;79.60;;;;;;5045865;28;20055;-67
2022/04/02 11:25:03;;;;;;;5.40;1.60;;;7.30;79.50;;;;;;5072974;28;20371;-68
2022/04/02 11:27:34;;;;;;;3.92;1.55;;;7.30;77.80;;;;;;5054731;28;20091;-67
2022/04/02 11:30:19;;;;;;;3.33;1.42;;;7.50;75.00;;;;;;5049888;28;20169;-67
2022/04/02 11:32:50;;;;;;;5.75;2.05;;;7.50;74.70;;;;;;5074371;28;20044;-68
2022/04/02 11:35:23;;;;;;;5.50;1.65;;;7.70;77.70;;;;;;5054180;28;20037;-68
2022/04/02 11:37:55;;;;;;;6.80;1.83;;;7.40;79.20;;;;;;5073951;28;20494;-68
2022/04/02 11:40:25;;;;;;;3.92;1.58;;;7.20;80.50;;;;;;5065983;28;20044;-68
2022/04/02 11:42:51;;;;;;;4.45;1.50;;;7.00;81.20;;;;;;5074588;28;20087;-66
2022/04/02 11:45:19;;;;;;;5.85;2.10;;;7.70;81.30;;;;;;5065475;28;20068;-66
2022/04/02 11:47:51;;;;;;;4.45;1.83;;;6.50;84.30;;;;;;5036300;28;20060;-66
2022/04/02 11:50:27;;;;;;;3.95;1.65;;;6.30;86.80;;;;;;5036751;28;20432;-66
2022/04/02 11:52:58;;;;;;;3.10;1.60;;;6.50;90.10;;;;;;5049437;28;20052;-66
2022/04/02 11:55:26;;;;;;;4.25;1.50;;;6.20;90.70;;;;;;5036370;28;20037;-67
2022/04/02 11:58:07;;;;;;;5.50;2.17;;;6.20;90.60;;;;;;5054258;28;20045;-65
2022/04/02 12:00:35;;;;;;;4.88;2.03;;;6.30;90.80;;;;;;5054000;28;20040;-67
2022/04/02 12:03:02;;;;;;;4.30;1.60;;;6.20;90.70;;;;;;5053590;28;20124;-66
2022/04/02 12:05:42;;;;;;;3.97;1.60;;;7.40;90.80;;;;;;5036167;28;20053;-68
2022/04/02 12:08:10;;;;;;;3.47;1.77;;;6.00;91.00;;;;;;5070056;28;20044;-66
2022/04/02 12:10:46;;;;;;;6.20;1.67;;;6.30;92.00;;;;;;5074082;28;20040;-67
2022/04/02 12:13:13;;;;;;;3.67;1.50;;;6.30;91.40;;;;;;5070819;28;20059;-67
2022/04/02 12:15:39;;;;;;;3.22;1.42;;;6.20;86.00;;;;;;5054273;28;20033;-67
2022/04/02 12:18:07;;;;;;;6.88;1.77;;;6.10;84.60;;;;;;5073850;28;20090;-67
2022/04/02 12:20:32;;;;;;;;;;;6.00;87.80;;;;;;5074261;28;20095;-66
2022/04/02 12:23:24;;;;;;;5.43;1.60;;;5.90;90.30;;;;;;5062504;28;19962;-67
2022/04/02 12:26:01;;;;;;;5.60;1.80;;;6.00;89.20;;;;;;5049143;28;20502;-66
2022/04/02 12:28:27;;;;;;;5.15;1.65;;;6.10;88.80;;;;;;5035688;28;20076;-67
2022/04/02 12:31:01;;;;;;;4.43;1.80;;;6.10;87.70;;;;;;5054209;28;20499;-66
2022/04/02 12:33:30;;;;;;;4.80;1.70;;;7.00;88.30;;;;;;5053774;28;20076;-68
2022/04/02 12:36:07;;;;;;;9.80;1.70;;;5.90;86.40;;;;;;5053710;28;20140;-66
2022/04/02 12:38:38;;;;;;;4.30;1.80;;;6.30;85.20;;;;;;5017677;28;20094;-67
2022/04/02 12:41:05;;;;;;;5.93;1.60;;;7.10;81.20;;;;;;5056135;28;20063;-67
2022/04/02 12:43:40;;;;;;;4.70;1.88;;;7.80;80.90;;;;;;5053567;28;20102;-67
2022/04/02 12:46:20;;;;;;;10.55;1.80;;;8.50;78.80;;;;;;5069893;28;20036;-67
2022/04/02 12:48:45;;;;;;;5.22;1.92;;;9.30;76.90;;;;;;5071690;28;20128;-68
2022/04/02 12:51:16;;;;;;;4.05;1.40;;;8.60;74.30;;;;;;5072790;28;20419;-67
2022/04/02 12:53:47;;;;;;;4.97;1.98;;;8.20;73.30;;;;;;5054660;28;20068;-66
2022/04/02 12:56:23;;;;;;;10.65;1.77;;;7.60;72.40;;;;;;5073049;28;20040;-67
2022/04/02 12:58:50;;;;;;;3.60;1.60;;;7.10;66.70;;;;;;5041366;28;20068;-67
2022/04/02 13:01:25;;;;;;;7.17;1.67;;;6.90;73.10;;;;;;5052915;28;20143;-67
2022/04/02 13:04:00;;;;;;;2.97;1.50;;;8.10;75.60;;;;;;5052335;28;20712;-67
2022/04/02 13:06:53;;;;;;;3.00;1.40;;;8.30;69.50;;;;;;5036271;28;20044;-67
2022/04/02 13:09:21;;;;;;;3.70;1.40;;;8.70;64.20;;;;;;5068085;28;20048;-67
2022/04/02 13:11:53;;;;;;;3.63;1.30;;;8.20;62.90;;;;;;5075081;28;20066;-67
2022/04/02 13:14:23;;;;;;;3.00;1.17;;;8.90;62.20;;;;;;5068552;28;20136;-66
2022/04/02 13:16:54;;;;;;;2.97;1.60;;;7.30;61.80;;;;;;5071246;28;20052;-67